createdAt,value
2022-10-28T00:00:51.158Z,60.89
2022-10-28T00:03:20.364Z,60.85
2022-10-28T00:05:47.826Z,60.64
2022-10-28T00:08:15.322Z,60.73
2022-10-28T00:10:42.783Z,61.15
2022-10-28T00:13:10.310Z,60.42
2022-10-28T00:15:37.767Z,60.62
2022-10-28T00:18:06.621Z,60.78
2022-10-28T00:20:35.436Z,60.43
2022-10-28T00:23:02.880Z,60.91
2022-10-28T00:25:30.353Z,60.07
2022-10-28T00:27:57.838Z,59.89
2022-10-28T00:30:25.367Z,60.21
2022-10-28T00:32:53.884Z,59.83
2022-10-28T00:35:21.482Z,59.53
2022-10-28T00:37:54.204Z,59.37
2022-10-28T00:40:21.669Z,59.60
2022-10-28T00:42:49.250Z,58.96
2022-10-28T00:45:16.722Z,58.73
2022-10-28T00:47:52.483Z,59.21
2022-10-28T00:50:32.969Z,58.49
2022-10-28T00:53:05.096Z,58.30
2022-10-28T00:55:33.961Z,58.29
2022-10-28T00:58:03.393Z,58.43
2022-10-28T01:00:30.950Z,58.61
2022-10-28T01:02:58.506Z,58.21
2022-10-28T01:05:28.920Z,58.27
2022-10-28T01:08:00.219Z,58.18
2022-10-28T01:10:39.252Z,58.17
2022-10-28T01:13:16.462Z,57.67
2022-10-28T01:15:49.557Z,57.25
2022-10-28T01:18:26.398Z,57.36
2022-10-28T01:21:19.341Z,56.93
2022-10-28T01:24:00.266Z,56.98
2022-10-28T01:26:46.547Z,56.69
2022-10-28T01:29:37.919Z,56.67
2022-10-28T01:32:14.756Z,56.79
2022-10-28T01:34:50.941Z,56.99
2022-10-28T01:37:23.884Z,56.65
2022-10-28T01:39:54.919Z,57.09
2022-10-28T01:42:29.273Z,57.05
2022-10-28T01:45:04.353Z,57.00
2022-10-28T01:47:38.382Z,56.80
2022-10-28T01:50:09.540Z,57.34
2022-10-28T01:52:41.024Z,57.28
2022-10-28T01:55:14.287Z,56.67
2022-10-28T01:57:43.017Z,56.88
2022-10-28T02:00:11.935Z,56.77
2022-10-28T02:02:42.633Z,57.05
2022-10-28T02:05:41.688Z,56.79
2022-10-28T02:08:31.647Z,57.51
2022-10-28T02:11:20.667Z,56.83
2022-10-28T02:13:56.260Z,56.77
2022-10-28T02:16:33.259Z,56.60
2022-10-28T02:19:09.810Z,56.72
2022-10-28T02:21:50.788Z,56.57
2022-10-28T02:24:22.672Z,56.65
2022-10-28T02:26:55.449Z,56.87
2022-10-28T02:29:32.295Z,56.74
2022-10-28T02:32:03.152Z,57.03
2022-10-28T02:34:34.548Z,57.14
2022-10-28T02:37:06.646Z,57.52
2022-10-28T02:39:40.108Z,57.62
2022-10-28T02:42:13.457Z,57.59
2022-10-28T02:44:49.576Z,58.05
2022-10-28T02:47:22.803Z,58.14
2022-10-28T02:49:56.968Z,57.78
2022-10-28T02:52:27.142Z,57.35
2022-10-28T02:54:57.308Z,57.69
2022-10-28T02:57:27.224Z,57.74
2022-10-28T02:59:55.575Z,57.99
2022-10-28T03:02:23.336Z,58.31
2022-10-28T03:04:52.195Z,58.08
2022-10-28T03:07:19.819Z,58.32
2022-10-28T03:09:47.284Z,58.10
2022-10-28T03:12:15.041Z,58.33
2022-10-28T03:14:42.495Z,57.82
2022-10-28T03:17:10.111Z,58.09
2022-10-28T03:19:37.616Z,58.06
2022-10-28T03:22:06.414Z,58.65
2022-10-28T03:24:33.893Z,58.74
2022-10-28T03:27:01.514Z,58.07
2022-10-28T03:29:28.943Z,58.02
2022-10-28T03:31:56.453Z,58.24
2022-10-28T03:34:23.994Z,58.38
2022-10-28T03:36:51.494Z,58.44
2022-10-28T03:39:20.315Z,58.20
2022-10-28T03:41:47.790Z,58.62
2022-10-28T03:44:15.278Z,58.62
2022-10-28T03:46:42.814Z,58.72
2022-10-28T03:49:10.289Z,58.76
2022-10-28T03:51:37.783Z,59.27
2022-10-28T03:54:05.456Z,59.18
2022-10-28T03:56:34.252Z,58.87
2022-10-28T03:59:01.705Z,58.88
2022-10-28T04:01:29.330Z,58.99
2022-10-28T04:03:56.828Z,59.25
2022-10-28T04:06:24.410Z,59.13
2022-10-28T04:08:51.870Z,59.43
2022-10-28T04:11:19.436Z,59.35
2022-10-28T04:13:48.219Z,59.49
2022-10-28T04:16:15.670Z,59.23
2022-10-28T04:18:43.123Z,59.07
2022-10-28T04:21:10.652Z,59.51
2022-10-28T04:23:38.105Z,59.41
2022-10-28T04:26:06.197Z,59.04
2022-10-28T04:28:33.890Z,58.92
2022-10-28T04:31:03.066Z,58.74
2022-10-28T04:33:30.595Z,59.52
2022-10-28T04:35:58.166Z,59.62
2022-10-28T04:40:58.124Z,60.02
2022-10-28T04:43:25.689Z,59.86
2022-10-28T04:45:53.245Z,59.79
2022-10-28T04:48:22.169Z,59.88
2022-10-28T04:50:50.914Z,59.92
2022-10-28T04:53:18.447Z,59.79
2022-10-28T04:55:45.925Z,59.73
2022-10-28T04:58:13.421Z,59.99
2022-10-28T05:00:40.873Z,60.05
2022-10-28T05:03:08.354Z,59.92
2022-10-28T05:05:37.212Z,59.73
2022-10-28T05:08:04.872Z,59.85
2022-10-28T05:10:32.414Z,59.53
2022-10-28T05:12:59.887Z,59.20
2022-10-28T05:15:27.388Z,59.50
2022-10-28T05:17:55.301Z,59.46
2022-10-28T05:20:23.164Z,59.44
2022-10-28T05:22:54.810Z,59.27
2022-10-28T05:25:22.895Z,59.33
2022-10-28T05:27:50.829Z,59.68
2022-10-28T05:30:19.017Z,59.84
2022-10-28T05:32:49.187Z,59.85
2022-10-28T05:35:19.177Z,59.94
2022-10-28T05:37:46.652Z,60.11
2022-10-28T05:40:15.730Z,60.69
2022-10-28T05:42:44.258Z,60.92
2022-10-28T05:45:12.448Z,60.68
2022-10-28T05:47:43.458Z,60.40
2022-10-28T05:50:11.357Z,60.47
2022-10-28T05:52:38.917Z,60.61
2022-10-28T05:55:07.477Z,60.57
2022-10-28T05:57:36.625Z,60.85
2022-10-28T06:00:06.143Z,60.85
2022-10-28T06:02:33.657Z,61.04
2022-10-28T06:05:01.150Z,60.76
2022-10-28T06:07:29.884Z,61.18
2022-10-28T06:09:57.339Z,61.60
2022-10-28T06:12:23.562Z,61.55
2022-10-28T06:14:52.375Z,61.18
2022-10-28T06:17:19.869Z,61.70
2022-10-28T06:19:47.381Z,62.04
2022-10-28T06:22:14.839Z,61.46
2022-10-28T06:24:42.318Z,61.40
2022-10-28T06:27:09.925Z,61.48
2022-10-28T06:29:37.422Z,61.40
2022-10-28T06:32:08.916Z,61.84
2022-10-28T06:34:37.561Z,62.49
2022-10-28T06:37:06.438Z,61.77
2022-10-28T06:39:34.148Z,61.69
2022-10-28T06:42:01.608Z,62.30
2022-10-28T06:44:29.080Z,62.18
2022-10-28T06:46:58.081Z,62.25
2022-10-28T06:49:26.901Z,61.89
2022-10-28T06:51:54.367Z,62.00
2022-10-28T06:54:21.846Z,62.08
2022-10-28T06:56:49.325Z,62.30
2022-10-28T06:59:16.806Z,62.61
2022-10-28T07:01:44.493Z,62.35
2022-10-28T07:04:13.690Z,62.16
2022-10-28T07:06:42.868Z,61.95
2022-10-28T07:09:14.177Z,61.89
2022-10-28T07:11:43.582Z,61.75
2022-10-28T07:14:11.301Z,62.17
2022-10-28T07:16:39.048Z,61.80
2022-10-28T07:19:06.498Z,61.75
2022-10-28T07:21:33.986Z,61.38
2022-10-28T07:24:03.187Z,61.61
2022-10-28T07:26:30.645Z,61.79
2022-10-28T07:28:58.184Z,61.29
2022-10-28T07:31:27.631Z,61.44
2022-10-28T07:33:55.710Z,61.48
2022-10-28T07:36:23.275Z,61.37
2022-10-28T07:38:51.836Z,61.31
2022-10-28T07:41:22.079Z,61.10
2022-10-28T07:43:49.888Z,61.10
2022-10-28T07:46:18.936Z,60.74
2022-10-28T07:48:46.663Z,60.53
2022-10-28T07:51:16.104Z,60.70
2022-10-28T07:53:43.550Z,60.21
2022-10-28T07:56:15.652Z,60.06
2022-10-28T07:58:45.869Z,59.98
2022-10-28T08:01:15.921Z,59.77
2022-10-28T08:03:44.597Z,59.95
2022-10-28T08:06:16.077Z,59.73
2022-10-28T08:08:44.366Z,59.90
2022-10-28T08:11:12.892Z,59.48
2022-10-28T08:13:40.605Z,59.37
2022-10-28T08:16:10.153Z,59.05
2022-10-28T08:18:38.588Z,59.33
2022-10-28T08:21:07.388Z,59.09
2022-10-28T08:23:35.592Z,59.02
2022-10-28T08:26:03.267Z,59.06
2022-10-28T08:28:30.809Z,59.25
2022-10-28T08:31:08.576Z,59.24
2022-10-28T08:33:38.904Z,59.33
2022-10-28T08:36:07.492Z,58.74
2022-10-28T08:38:35.052Z,58.92
2022-10-28T08:41:13.763Z,58.85
2022-10-28T08:43:57.990Z,58.86
2022-10-28T08:46:38.588Z,59.06
2022-10-28T08:49:13.301Z,58.81
2022-10-28T08:51:46.607Z,59.03
2022-10-28T08:54:19.715Z,58.69
2022-10-28T08:56:49.782Z,58.66
2022-10-28T08:59:23.500Z,58.76
2022-10-28T09:04:36.775Z,58.49
2022-10-28T09:07:04.821Z,58.22
2022-10-28T09:09:33.623Z,57.98
2022-10-28T09:12:16.072Z,58.52
2022-10-28T09:15:06.943Z,58.32
2022-10-28T09:17:43.828Z,58.43
2022-10-28T09:20:19.740Z,57.92
2022-10-28T09:22:56.679Z,57.67
2022-10-28T09:25:32.809Z,57.81
2022-10-28T09:28:14.490Z,57.66
2022-10-28T09:30:52.304Z,57.17
2022-10-28T09:33:43.854Z,57.34
2022-10-28T09:36:20.084Z,57.25
2022-10-28T09:38:48.850Z,56.58
2022-10-28T09:41:19.386Z,56.38
2022-10-28T09:43:50.415Z,55.80
2022-10-28T09:46:19.584Z,55.89
2022-10-28T09:48:49.835Z,55.76
2022-10-28T09:51:27.415Z,55.67
2022-10-28T09:53:58.379Z,54.95
2022-10-28T09:56:26.870Z,55.40
2022-10-28T09:58:56.668Z,55.31
2022-10-28T10:01:24.323Z,54.61
2022-10-28T10:03:53.209Z,54.32
2022-10-28T10:06:27.035Z,54.51
2022-10-28T10:08:56.234Z,53.86
2022-10-28T10:11:31.399Z,53.90
2022-10-28T10:14:01.495Z,53.73
2022-10-28T10:16:39.875Z,53.78
2022-10-28T10:19:09.405Z,53.74
2022-10-28T10:21:46.909Z,53.75
2022-10-28T10:24:25.943Z,53.60
2022-10-28T10:26:55.084Z,53.31
2022-10-28T10:29:23.406Z,53.31
2022-10-28T10:32:05.449Z,52.72
2022-10-28T10:34:34.323Z,52.90
2022-10-28T10:39:38.760Z,52.42
2022-10-28T10:42:16.888Z,52.62
2022-10-28T10:44:44.710Z,52.74
2022-10-28T10:47:20.460Z,52.38
2022-10-28T10:49:49.702Z,52.59
2022-10-28T10:52:22.755Z,51.72
2022-10-28T10:55:01.597Z,52.24
2022-10-28T10:57:29.864Z,52.18
2022-10-28T10:59:58.331Z,52.24
2022-10-28T11:02:28.957Z,51.95
2022-10-28T11:05:00.731Z,52.22
2022-10-28T11:07:31.159Z,51.84
2022-10-28T11:09:58.758Z,51.79
2022-10-28T11:12:29.224Z,51.53
2022-10-28T11:14:58.789Z,50.93
2022-10-28T11:17:28.894Z,50.75
2022-10-28T11:19:58.697Z,50.26
2022-10-28T11:22:39.900Z,50.03
2022-10-28T11:25:36.564Z,50.14
2022-10-28T11:28:21.035Z,49.33
2022-10-28T11:30:58.944Z,50.01
2022-10-28T11:33:35.365Z,49.71
2022-10-28T11:36:16.719Z,49.66
2022-10-28T11:38:58.591Z,49.12
2022-10-28T11:41:41.150Z,49.18
2022-10-28T11:44:24.242Z,49.56
2022-10-28T11:47:05.053Z,48.89
2022-10-28T11:50:02.295Z,48.48
2022-10-28T11:52:45.301Z,48.85
2022-10-28T11:55:23.721Z,49.08
2022-10-28T11:58:05.841Z,48.04
2022-10-28T12:00:48.375Z,48.03
2022-10-28T12:03:41.545Z,47.90
2022-10-28T12:06:17.757Z,48.16
2022-10-28T12:09:00.699Z,47.58
2022-10-28T12:11:40.478Z,47.48
2022-10-28T12:14:18.229Z,47.55
2022-10-28T12:16:53.730Z,47.31
2022-10-28T12:19:27.948Z,46.94
2022-10-28T12:22:02.164Z,47.47
2022-10-28T12:24:32.445Z,47.31
2022-10-28T12:27:05.641Z,46.56
2022-10-28T12:29:38.662Z,46.89
2022-10-28T12:32:09.995Z,46.79
2022-10-28T12:34:43.964Z,46.55
2022-10-28T12:37:14.689Z,46.54
2022-10-28T12:39:49.553Z,46.74
2022-10-28T12:42:26.665Z,46.89
2022-10-28T12:44:57.991Z,47.18
2022-10-28T12:47:31.577Z,45.94
2022-10-28T12:50:06.715Z,46.22
2022-10-28T12:52:40.098Z,45.83
2022-10-28T12:55:19.331Z,45.99
2022-10-28T12:57:51.896Z,46.27
2022-10-28T13:00:24.383Z,46.33
2022-10-28T13:02:56.977Z,46.17
2022-10-28T13:05:28.389Z,45.94
2022-10-28T13:08:10.430Z,45.99
2022-10-28T13:10:44.374Z,45.94
2022-10-28T13:13:39.133Z,46.67
2022-10-28T13:16:29.411Z,46.41
2022-10-28T13:19:20.929Z,46.14
2022-10-28T13:22:06.760Z,46.51
2022-10-28T13:24:43.218Z,45.89
2022-10-28T13:27:14.171Z,46.89
2022-10-28T13:29:44.811Z,46.54
2022-10-28T13:32:37.345Z,46.54
2022-10-28T13:35:14.592Z,46.71
2022-10-28T13:37:46.638Z,46.98
2022-10-28T13:40:23.281Z,47.18
2022-10-28T13:42:51.364Z,47.21
2022-10-28T13:45:50.299Z,47.65
2022-10-28T13:48:45.822Z,47.77
2022-10-28T13:51:35.345Z,47.37
2022-10-28T13:54:02.853Z,48.07
2022-10-28T13:56:45.680Z,47.34
2022-10-28T13:59:30.169Z,47.06
2022-10-28T14:02:34.429Z,47.31
2022-10-28T14:05:06.183Z,47.02
2022-10-28T14:07:36.420Z,46.63
2022-10-28T14:10:20.793Z,46.89
2022-10-28T14:12:50.907Z,46.29
2022-10-28T14:15:22.339Z,46.63
2022-10-28T14:18:00.896Z,46.70
2022-10-28T14:20:41.847Z,46.87
2022-10-28T14:23:45.633Z,47.04
2022-10-28T14:26:13.137Z,47.31
2022-10-28T14:28:54.423Z,47.35
2022-10-28T14:31:39.224Z,47.26
2022-10-28T14:34:35.056Z,47.43
2022-10-28T14:37:18.477Z,47.55
2022-10-28T14:39:58.893Z,47.75
2022-10-28T14:42:42.075Z,47.88
2022-10-28T14:45:26.958Z,47.86
2022-10-28T14:48:15.772Z,48.18
2022-10-28T14:50:47.221Z,48.31
2022-10-28T14:53:19.663Z,48.23
2022-10-28T14:55:51.451Z,48.70
2022-10-28T14:58:22.504Z,48.30
2022-10-28T15:01:00.758Z,48.69
2022-10-28T15:03:28.776Z,48.67
2022-10-28T15:06:05.101Z,48.67
2022-10-28T15:08:32.620Z,48.86
2022-10-28T15:11:00.177Z,48.80
2022-10-28T15:13:27.857Z,49.04
2022-10-28T15:15:59.401Z,49.49
2022-10-28T15:18:29.702Z,49.56
2022-10-28T15:21:12.458Z,49.83
2022-10-28T15:23:39.926Z,49.86
2022-10-28T15:26:08.757Z,50.04
2022-10-28T15:28:37.240Z,50.14
2022-10-28T15:31:04.915Z,50.61
2022-10-28T15:33:33.782Z,51.47
2022-10-28T15:36:18.363Z,51.57
2022-10-28T15:38:47.404Z,51.21
2022-10-28T15:41:42.597Z,51.41
2022-10-28T15:44:26.585Z,51.62
2022-10-28T15:46:55.848Z,51.75
2022-10-28T15:49:36.102Z,51.94
2022-10-28T15:52:31.497Z,52.38
2022-10-28T15:54:59.671Z,52.15
2022-10-28T15:57:29.746Z,52.55
2022-10-28T16:00:22.384Z,52.49
2022-10-28T16:03:01.626Z,53.26
2022-10-28T16:05:54.245Z,52.82
2022-10-28T16:08:26.548Z,53.61
2022-10-28T16:10:57.583Z,53.52
2022-10-28T16:13:29.201Z,53.65
2022-10-28T16:16:00.653Z,53.71
2022-10-28T16:18:30.767Z,53.50
2022-10-28T16:21:00.166Z,54.43
2022-10-28T16:23:35.732Z,53.88
2022-10-28T16:26:03.452Z,53.81
2022-10-28T16:28:32.325Z,54.11
2022-10-28T16:31:01.860Z,54.38
2022-10-28T16:33:32.796Z,54.91
2022-10-28T16:36:00.931Z,54.17
2022-10-28T16:38:30.571Z,54.28
2022-10-28T16:40:59.276Z,54.07
2022-10-28T16:43:28.329Z,55.25
2022-10-28T16:45:57.467Z,55.04
2022-10-28T16:48:30.727Z,55.01
2022-10-28T16:51:00.476Z,55.53
2022-10-28T16:53:27.999Z,55.07
2022-10-28T16:55:59.674Z,54.95
2022-10-28T16:58:28.412Z,54.98
2022-10-28T17:00:57.146Z,54.59
2022-10-28T17:03:24.789Z,54.35
2022-10-28T17:05:56.782Z,54.65
2022-10-28T17:08:48.927Z,54.95
2022-10-28T17:11:15.791Z,54.99
2022-10-28T17:13:45.038Z,55.05
2022-10-28T17:16:13.338Z,54.66
2022-10-28T17:18:42.450Z,54.48
2022-10-28T17:21:10.417Z,54.40
2022-10-28T17:23:40.186Z,54.85
2022-10-28T17:26:07.698Z,54.93
2022-10-28T17:28:36.593Z,54.94
2022-10-28T17:31:05.173Z,54.66
2022-10-28T17:33:32.950Z,54.97
2022-10-28T17:36:02.605Z,54.99
2022-10-28T17:38:30.739Z,55.47
2022-10-28T17:40:58.774Z,55.70
2022-10-28T17:43:26.510Z,56.04
2022-10-28T17:46:04.284Z,56.05
2022-10-28T17:48:31.926Z,55.65
2022-10-28T17:50:59.416Z,55.92
2022-10-28T17:53:27.048Z,56.35
2022-10-28T17:55:58.396Z,56.17
2022-10-28T17:58:26.198Z,56.18
2022-10-28T18:00:59.014Z,55.90
2022-10-28T18:03:27.315Z,56.39
2022-10-28T18:05:55.311Z,56.08
2022-10-28T18:08:23.455Z,55.82
2022-10-28T18:10:54.853Z,56.79
2022-10-28T18:13:26.393Z,56.63
2022-10-28T18:15:53.908Z,56.74
2022-10-28T18:18:22.793Z,56.90
2022-10-28T18:20:53.931Z,57.60
2022-10-28T18:23:21.506Z,57.38
2022-10-28T18:25:58.440Z,57.43
2022-10-28T18:28:26.072Z,57.61
2022-10-28T18:30:53.771Z,57.59
2022-10-28T18:33:22.643Z,58.09
2022-10-28T18:35:50.123Z,58.76
2022-10-28T18:38:17.641Z,58.55
2022-10-28T18:40:48.313Z,58.53
2022-10-28T18:43:15.798Z,58.46
2022-10-28T18:45:43.288Z,58.90
2022-10-28T18:48:10.859Z,58.83
2022-10-28T18:50:39.786Z,58.45
2022-10-28T18:53:07.799Z,58.82
2022-10-28T18:55:35.496Z,58.74
2022-10-28T18:58:03.203Z,58.78
2022-10-28T19:00:30.657Z,58.53
2022-10-28T19:02:58.138Z,58.74
2022-10-28T19:05:25.609Z,58.99
2022-10-28T19:07:54.681Z,58.52
2022-10-28T19:10:22.373Z,58.91
2022-10-28T19:12:53.015Z,58.63
2022-10-28T19:15:20.860Z,58.66
2022-10-28T19:17:48.404Z,58.57
2022-10-28T19:20:16.191Z,58.74
2022-10-28T19:22:43.727Z,58.94
2022-10-28T19:25:12.650Z,58.85
2022-10-28T19:27:40.140Z,58.93
2022-10-28T19:30:12.407Z,59.10
2022-10-28T19:32:41.155Z,59.37
2022-10-28T19:35:09.365Z,59.35
2022-10-28T19:37:36.936Z,59.17
2022-10-28T19:40:04.767Z,59.13
2022-10-28T19:42:33.587Z,58.96
2022-10-28T19:45:03.779Z,58.90
2022-10-28T19:47:31.331Z,58.96
2022-10-28T19:49:59.043Z,58.80
2022-10-28T19:52:26.601Z,58.61
2022-10-28T19:54:54.042Z,59.00
2022-10-28T19:57:21.675Z,59.68
2022-10-28T19:59:50.500Z,59.19
2022-10-28T20:02:18.085Z,59.20
2022-10-28T20:04:45.898Z,59.02
2022-10-28T20:07:13.369Z,59.60
2022-10-28T20:09:40.858Z,59.21
2022-10-28T20:12:08.351Z,59.26
2022-10-28T20:14:35.868Z,59.69
2022-10-28T20:17:06.740Z,59.20
2022-10-28T20:19:34.533Z,59.90
2022-10-28T20:22:02.074Z,59.23
2022-10-28T20:24:29.548Z,59.65
2022-10-28T20:26:57.044Z,59.56
2022-10-28T20:29:24.629Z,59.73
2022-10-28T20:31:52.249Z,59.71
2022-10-28T20:34:21.112Z,59.85
2022-10-28T20:36:48.603Z,59.58
2022-10-28T20:39:17.915Z,59.49
2022-10-28T20:41:47.346Z,59.54
2022-10-28T20:44:15.341Z,59.44
2022-10-28T20:46:44.869Z,59.35
2022-10-28T20:49:13.112Z,59.83
2022-10-28T20:51:44.780Z,59.46
2022-10-28T20:54:12.303Z,59.78
2022-10-28T20:56:40.220Z,59.75
2022-10-28T20:59:07.906Z,59.72
2022-10-28T21:01:38.135Z,59.94
2022-10-28T21:04:08.373Z,60.34
2022-10-28T21:06:38.621Z,60.22
2022-10-28T21:09:08.698Z,60.21
2022-10-28T21:11:36.221Z,59.99
2022-10-28T21:14:03.930Z,59.83
2022-10-28T21:16:31.779Z,59.91
2022-10-28T21:19:00.028Z,60.19
2022-10-28T21:21:28.301Z,60.13
2022-10-28T21:23:55.813Z,60.33
2022-10-28T21:26:26.538Z,60.34
2022-10-28T21:28:54.755Z,60.55
2022-10-28T21:31:23.124Z,60.57
2022-10-28T21:33:51.137Z,60.92
2022-10-28T21:36:20.383Z,60.49
2022-10-28T21:38:48.097Z,60.26
2022-10-28T21:41:17.546Z,60.79
2022-10-28T21:43:48.592Z,60.76
2022-10-28T21:46:16.672Z,60.97
2022-10-28T21:48:44.418Z,60.58
2022-10-28T21:51:15.272Z,61.33
2022-10-28T21:53:44.037Z,61.06
2022-10-28T21:56:17.154Z,61.04
2022-10-28T21:58:48.651Z,60.82
2022-10-28T22:01:18.564Z,60.56
2022-10-28T22:03:46.264Z,61.03
2022-10-28T22:06:14.122Z,60.92
2022-10-28T22:08:42.058Z,61.24
2022-10-28T22:11:13.464Z,61.10
2022-10-28T22:13:40.953Z,60.78
2022-10-28T22:16:12.798Z,60.72
2022-10-28T22:18:40.605Z,61.78
2022-10-28T22:21:11.117Z,61.00
2022-10-28T22:23:39.165Z,61.08
2022-10-28T22:26:08.995Z,60.87
2022-10-28T22:28:36.638Z,60.63
2022-10-28T22:31:06.352Z,61.01
2022-10-28T22:33:37.480Z,61.49
2022-10-28T22:36:11.292Z,61.46
2022-10-28T22:38:42.425Z,61.42
2022-10-28T22:41:13.817Z,61.51
2022-10-28T22:43:42.598Z,61.76
2022-10-28T22:46:17.060Z,61.72
2022-10-28T22:48:46.421Z,61.98
2022-10-28T22:51:22.504Z,61.61
2022-10-28T22:53:51.270Z,61.65
2022-10-28T22:56:21.372Z,62.00
2022-10-28T22:58:49.713Z,61.56
2022-10-28T23:01:19.675Z,62.12
2022-10-28T23:03:50.194Z,61.43
2022-10-28T23:06:19.987Z,61.62
2022-10-28T23:08:48.394Z,62.06
2022-10-28T23:11:17.797Z,61.91
2022-10-28T23:13:45.756Z,61.61
2022-10-28T23:16:15.478Z,61.79
2022-10-28T23:18:44.384Z,61.65
2022-10-28T23:21:15.440Z,61.44
2022-10-28T23:23:49.633Z,61.82
2022-10-28T23:26:20.874Z,62.15
2022-10-28T23:28:51.578Z,61.98
2022-10-28T23:31:19.694Z,62.26
2022-10-28T23:33:47.608Z,62.03
2022-10-28T23:36:17.009Z,62.07
2022-10-28T23:38:47.864Z,62.17
2022-10-28T23:41:18.790Z,62.28
2022-10-28T23:43:47.254Z,62.01
2022-10-28T23:46:14.910Z,62.41
2022-10-28T23:48:42.432Z,62.67
2022-10-28T23:51:10.367Z,62.67
2022-10-28T23:53:39.381Z,62.82
2022-10-28T23:56:07.968Z,63.44
2022-10-28T23:58:35.469Z,63.02
